createdAt,value
2022-12-04T00:01:41.587Z,1073
2022-12-04T00:07:00.046Z,1075
2022-12-04T00:12:18.275Z,1075
2022-12-04T00:17:37.045Z,1074
2022-12-04T00:22:55.556Z,1080
2022-12-04T00:28:14.080Z,1079
2022-12-04T00:33:31.986Z,1083
2022-12-04T00:38:50.205Z,1088
2022-12-04T00:44:09.025Z,1088
2022-12-04T00:49:27.469Z,1091
2022-12-04T00:54:45.976Z,1091
2022-12-04T01:00:04.183Z,1093
2022-12-04T01:05:22.677Z,1089
2022-12-04T01:10:40.569Z,1095
2022-12-04T01:15:59.157Z,1092
2022-12-04T01:21:17.745Z,1094
2022-12-04T01:26:36.224Z,1099
2022-12-04T01:31:55.136Z,1100
2022-12-04T01:37:13.341Z,1101
2022-12-04T01:42:32.148Z,1100
2022-12-04T01:47:50.814Z,1107
2022-12-04T01:53:08.743Z,1108
2022-12-04T01:58:27.209Z,1111
2022-12-04T02:03:45.732Z,1119
2022-12-04T02:09:04.221Z,1131
2022-12-04T02:14:23.028Z,1180
2022-12-04T02:19:41.265Z,1218
2022-12-04T02:25:00.018Z,1250
2022-12-04T02:30:18.844Z,1271
2022-12-04T02:35:37.162Z,1298
2022-12-04T02:40:55.335Z,1315
2022-12-04T02:46:13.957Z,1332
2022-12-04T02:51:32.570Z,1339
2022-12-04T02:56:50.797Z,1355
2022-12-04T03:02:09.577Z,1364
2022-12-04T03:07:28.048Z,1381
2022-12-04T03:12:46.733Z,1402
2022-12-04T03:18:04.980Z,1421
2022-12-04T03:23:23.468Z,1434
2022-12-04T03:28:41.667Z,1428
2022-12-04T03:34:00.152Z,1424
2022-12-04T03:39:18.950Z,1429
2022-12-04T03:44:36.870Z,1438
2022-12-04T03:49:55.835Z,1450
2022-12-04T03:55:15.396Z,1459
2022-12-04T04:00:33.607Z,1459
2022-12-04T04:05:52.068Z,1463
2022-12-04T04:11:10.596Z,1464
2022-12-04T04:16:28.804Z,1464
2022-12-04T04:21:47.555Z,1462
2022-12-04T04:27:06.053Z,1470
2022-12-04T04:32:24.499Z,1469
2022-12-04T04:37:43.002Z,1468
2022-12-04T04:43:01.288Z,1475
2022-12-04T04:48:19.449Z,1475
2022-12-04T04:53:38.248Z,1468
2022-12-04T04:58:56.179Z,1468
2022-12-04T05:04:14.943Z,1464
2022-12-04T05:09:36.838Z,1466
2022-12-04T05:14:59.939Z,1473
2022-12-04T05:20:18.138Z,1463
2022-12-04T05:25:36.636Z,1465
2022-12-04T05:30:54.656Z,1455
2022-12-04T05:36:13.192Z,1455
2022-12-04T05:41:31.405Z,1451
2022-12-04T05:46:49.977Z,1454
2022-12-04T05:52:08.557Z,1473
2022-12-04T05:57:29.900Z,1470
2022-12-04T06:02:48.467Z,1467
2022-12-04T06:08:06.716Z,1468
2022-12-04T06:13:25.277Z,1456
2022-12-04T06:18:43.535Z,1438
2022-12-04T06:24:02.047Z,1440
2022-12-04T06:29:20.779Z,1443
2022-12-04T06:34:39.294Z,1430
2022-12-04T06:39:57.544Z,1434
2022-12-04T06:45:16.356Z,1417
2022-12-04T06:50:34.910Z,1415
2022-12-04T06:55:53.393Z,1405
2022-12-04T07:01:11.671Z,1398
2022-12-04T07:06:30.316Z,1387
2022-12-04T07:11:49.052Z,1389
2022-12-04T07:17:07.587Z,1394
2022-12-04T07:22:25.764Z,1387
2022-12-04T07:27:44.547Z,1369
2022-12-04T07:33:03.005Z,1384
2022-12-04T07:38:21.806Z,1379
2022-12-04T07:43:40.302Z,1379
2022-12-04T07:48:59.067Z,1380
2022-12-04T07:54:17.589Z,1385
2022-12-04T07:59:36.499Z,1384
2022-12-04T08:04:55.052Z,1381
2022-12-04T08:10:13.281Z,1384
2022-12-04T08:15:31.722Z,1384
2022-12-04T08:20:49.926Z,1376
2022-12-04T08:26:07.920Z,1378
2022-12-04T08:31:26.487Z,1382
2022-12-04T08:36:45.654Z,1385
2022-12-04T08:42:03.943Z,1386
2022-12-04T08:47:07.040Z,1386
2022-12-04T08:52:25.833Z,1383
2022-12-04T08:57:44.342Z,1374
2022-12-04T09:03:02.567Z,1397
2022-12-04T09:08:21.376Z,1412
2022-12-04T09:13:24.609Z,1240
2022-12-04T09:18:43.070Z,1240
2022-12-04T09:24:01.572Z,1213
2022-12-04T09:29:19.834Z,1174
2022-12-04T09:34:38.487Z,1162
2022-12-04T09:39:57.529Z,1134
2022-12-04T09:45:16.544Z,1115
2022-12-04T09:50:34.709Z,1091
2022-12-04T09:55:53.228Z,1074
2022-12-04T10:01:11.750Z,1061
2022-12-04T10:06:30.211Z,1041
2022-12-04T10:11:48.702Z,1031
2022-12-04T10:17:06.954Z,1020
2022-12-04T10:22:24.892Z,1013
2022-12-04T10:27:43.367Z,1005
2022-12-04T10:32:46.233Z,985
2022-12-04T10:37:49.074Z,958
2022-12-04T10:43:07.843Z,938
2022-12-04T10:48:26.659Z,936
2022-12-04T10:53:44.566Z,930
2022-12-04T10:59:03.038Z,933
2022-12-04T11:04:21.822Z,923
2022-12-04T11:09:24.668Z,901
2022-12-04T11:14:46.923Z,909
2022-12-04T11:20:06.076Z,920
2022-12-04T11:25:23.979Z,919
2022-12-04T11:30:42.753Z,914
2022-12-04T11:36:01.268Z,894
2022-12-04T11:41:19.751Z,883
2022-12-04T11:46:38.040Z,881
2022-12-04T11:51:56.573Z,880
2022-12-04T11:57:15.313Z,874
2022-12-04T12:02:34.122Z,876
2022-12-04T12:07:55.336Z,877
2022-12-04T12:22:09.584Z,881
2022-12-04T12:27:28.084Z,889
2022-12-04T12:32:46.832Z,889
2022-12-04T12:38:05.623Z,888
2022-12-04T12:43:23.653Z,915
2022-12-04T12:48:41.829Z,953
2022-12-04T12:54:00.594Z,994
2022-12-04T12:59:18.815Z,1027
2022-12-04T13:04:37.556Z,1066
2022-12-04T13:09:56.512Z,1206
2022-12-04T13:15:15.820Z,1165
2022-12-04T13:20:34.273Z,1158
2022-12-04T13:25:52.775Z,1047
2022-12-04T13:31:11.605Z,850
2022-12-04T13:36:29.784Z,945
2022-12-04T13:41:48.245Z,984
2022-12-04T13:47:06.788Z,1003
2022-12-04T13:52:25.535Z,1002
2022-12-04T13:57:44.012Z,1007
2022-12-04T14:03:02.525Z,1011
2022-12-04T14:08:21.779Z,1008
2022-12-04T14:13:39.976Z,1007
2022-12-04T14:18:58.485Z,1002
2022-12-04T14:24:16.675Z,998
2022-12-04T14:29:34.833Z,997
2022-12-04T14:34:53.497Z,1003
2022-12-04T14:40:13.324Z,1010
2022-12-04T14:45:32.086Z,1011
2022-12-04T14:50:50.899Z,1017
2022-12-04T14:56:09.656Z,1037
2022-12-04T15:01:29.580Z,1056
2022-12-04T15:06:48.361Z,1060
2022-12-04T15:12:06.585Z,1041
2022-12-04T15:17:25.030Z,997
2022-12-04T15:22:43.252Z,1033
2022-12-04T15:28:01.442Z,1063
2022-12-04T15:33:21.627Z,1072
2022-12-04T15:38:40.336Z,1078
2022-12-04T15:43:58.811Z,1109
2022-12-04T15:49:17.009Z,1153
2022-12-04T15:54:35.593Z,1151
2022-12-04T15:59:54.105Z,1152
2022-12-04T16:05:12.824Z,1149
2022-12-04T16:10:31.632Z,1141
2022-12-04T16:15:49.837Z,1134
2022-12-04T16:21:08.232Z,1124
2022-12-04T16:26:26.755Z,1122
2022-12-04T16:31:45.546Z,1122
2022-12-04T16:37:04.377Z,1117
2022-12-04T16:42:23.148Z,1124
2022-12-04T16:47:41.648Z,1154
2022-12-04T16:52:59.550Z,1164
2022-12-04T16:58:18.083Z,1156
2022-12-04T17:03:36.588Z,1133
2022-12-04T17:08:54.924Z,1108
2022-12-04T17:14:13.457Z,1124
2022-12-04T17:19:32.177Z,1150
2022-12-04T17:24:55.862Z,1161
2022-12-04T17:30:14.778Z,1156
2022-12-04T17:35:33.251Z,1132
2022-12-04T17:40:52.038Z,1103
2022-12-04T17:46:10.582Z,1082
2022-12-04T17:51:29.246Z,1092
2022-12-04T17:56:50.371Z,1136
2022-12-04T18:02:15.922Z,1145
2022-12-04T18:07:33.859Z,1172
2022-12-04T18:12:52.463Z,1187
2022-12-04T18:18:11.002Z,1182
2022-12-04T18:23:29.476Z,1155
2022-12-04T18:28:47.680Z,1143
2022-12-04T18:34:05.648Z,1135
2022-12-04T18:39:24.090Z,1124
2022-12-04T18:44:43.053Z,1121
2022-12-04T18:50:01.604Z,1111
2022-12-04T18:55:20.347Z,1110
2022-12-04T19:00:38.558Z,1110
2022-12-04T19:05:57.432Z,1111
2022-12-04T19:11:16.045Z,1112
2022-12-04T19:16:34.535Z,1113
2022-12-04T19:21:52.952Z,1114
2022-12-04T19:27:11.703Z,1119
2022-12-04T19:32:29.903Z,1128
2022-12-04T19:37:52.544Z,1137
2022-12-04T19:43:10.892Z,1150
2022-12-04T19:48:29.403Z,1161
2022-12-04T19:53:36.340Z,1175
2022-12-04T19:58:59.682Z,1179
2022-12-04T20:04:17.926Z,1181
2022-12-04T20:09:35.913Z,1187
2022-12-04T20:14:54.096Z,1199
2022-12-04T20:20:12.591Z,1245
2022-12-04T20:25:36.765Z,1312
2022-12-04T20:30:55.435Z,1312
2022-12-04T20:36:13.941Z,1340
2022-12-04T20:41:32.455Z,1375
2022-12-04T20:46:50.932Z,1397
2022-12-04T20:51:53.791Z,1412
2022-12-04T20:57:12.271Z,1428
2022-12-04T21:02:30.859Z,1439
2022-12-04T21:07:49.612Z,1445
2022-12-04T21:13:08.026Z,1449
2022-12-04T21:18:26.529Z,1464
2022-12-04T21:23:45.270Z,1483
2022-12-04T21:29:04.051Z,1492
2022-12-04T21:34:22.871Z,1513
2022-12-04T21:39:41.341Z,1528
2022-12-04T21:44:59.819Z,1538
2022-12-04T21:50:18.046Z,1555
2022-12-04T21:55:36.517Z,1564
2022-12-04T22:00:55.290Z,1579
2022-12-04T22:06:13.523Z,1578
2022-12-04T22:11:32.036Z,1597
2022-12-04T22:16:49.982Z,1601
2022-12-04T22:22:08.480Z,1612
2022-12-04T22:27:31.952Z,1605
2022-12-04T22:32:50.603Z,1618
2022-12-04T22:38:08.799Z,1630
2022-12-04T22:43:26.967Z,1634
2022-12-04T22:48:45.412Z,1621
2022-12-04T22:54:03.651Z,1614
2022-12-04T22:59:21.665Z,1611
2022-12-04T23:04:40.190Z,1615
2022-12-04T23:09:59.218Z,1621
2022-12-04T23:15:18.106Z,1621
2022-12-04T23:20:36.617Z,1618
2022-12-04T23:25:54.582Z,1619
2022-12-04T23:31:12.550Z,1613
2022-12-04T23:36:30.783Z,1612
2022-12-04T23:41:48.990Z,1613
2022-12-04T23:47:07.221Z,1619
2022-12-04T23:52:25.412Z,1624
2022-12-04T23:57:43.679Z,1625
